createdAt,value
2018-06-03T00:01:19.311Z,7.10
2018-06-03T00:03:46.772Z,6.57
2018-06-03T00:06:14.262Z,7.90
2018-06-03T00:08:42.427Z,9.83
2018-06-03T00:11:09.911Z,7.33
2018-06-03T00:13:37.401Z,8.50
2018-06-03T00:16:05.457Z,8.03
2018-06-03T00:18:33.747Z,7.77
2018-06-03T00:35:55.480Z,7.93
2018-06-03T00:38:25.530Z,6.30
2018-06-03T00:40:58.661Z,6.77
2018-06-03T00:43:28.211Z,6.20
2018-06-03T00:45:57.681Z,7.13
2018-06-03T00:48:30.158Z,9.80
2018-06-03T00:50:59.280Z,7.17
2018-06-03T00:53:31.415Z,9.50
2018-06-03T00:56:05.868Z,5.80
2018-06-03T00:58:36.052Z,6.87
2018-06-03T01:01:05.124Z,7.07
2018-06-03T01:03:35.360Z,6.40
2018-06-03T01:06:06.648Z,9.80
2018-06-03T01:08:39.768Z,10.30
2018-06-03T01:11:10.410Z,5.73
2018-06-03T01:13:40.683Z,7.37
2018-06-03T01:16:09.492Z,7.07
2018-06-03T01:18:39.252Z,7.20
2018-06-03T01:21:07.366Z,7.13
2018-06-03T01:23:41.687Z,9.47
2018-06-03T01:26:11.050Z,7.10
2018-06-03T01:31:15.779Z,6.03
2018-06-03T01:33:47.442Z,6.93
2018-06-03T01:36:16.898Z,7.20
2018-06-03T01:38:47.503Z,7.63
2018-06-03T01:41:19.176Z,6.70
2018-06-03T01:43:48.307Z,11.70
2018-06-03T01:46:16.754Z,9.00
2018-06-03T01:48:46.968Z,9.00
2018-06-03T01:51:16.415Z,12.80
2018-06-03T01:53:49.061Z,7.20
2018-06-03T01:56:19.843Z,6.93
2018-06-03T01:58:48.922Z,6.57
2018-06-03T02:01:19.175Z,7.80
2018-06-03T02:03:47.582Z,10.00
2018-06-03T02:06:16.092Z,6.97
2018-06-03T02:08:45.204Z,6.70
2018-06-03T02:11:13.695Z,7.63
2018-06-03T02:13:42.013Z,7.47
2018-06-03T02:16:10.338Z,8.33
2018-06-03T02:18:38.654Z,14.10
2018-06-03T02:21:06.986Z,8.30
2018-06-03T02:23:35.275Z,6.70
2018-06-03T02:26:03.592Z,9.10
2018-06-03T02:28:31.872Z,7.33
2018-06-03T02:31:00.158Z,10.00
2018-06-03T02:33:28.464Z,8.57
2018-06-03T02:35:56.791Z,7.70
2018-06-03T02:38:25.064Z,12.30
2018-06-03T02:40:53.360Z,12.50
2018-06-03T02:43:21.670Z,10.37
2018-06-03T02:45:49.953Z,9.03
2018-06-03T02:48:18.267Z,10.37
2018-06-03T02:50:46.531Z,12.43
2018-06-03T02:53:14.821Z,9.43
2018-06-03T02:55:43.144Z,10.47
2018-06-03T02:58:11.496Z,8.80
2018-06-03T03:00:39.807Z,8.67
2018-06-03T03:03:08.118Z,10.20
2018-06-03T03:05:36.413Z,7.53
2018-06-03T03:08:04.733Z,9.83
2018-06-03T03:10:33.867Z,7.60
2018-06-03T03:13:02.174Z,10.63
2018-06-03T03:15:30.459Z,10.60
2018-06-03T03:17:58.815Z,9.90
2018-06-03T03:20:27.145Z,9.33
2018-06-03T03:22:55.486Z,9.93
2018-06-03T03:25:24.885Z,7.90
2018-06-03T03:27:53.204Z,10.00
2018-06-03T03:30:21.598Z,8.43
2018-06-03T03:32:49.909Z,7.83
2018-06-03T03:35:18.285Z,7.80
2018-06-03T03:37:46.677Z,11.00
2018-06-03T03:40:14.995Z,9.03
2018-06-03T03:42:43.328Z,10.90
2018-06-03T03:45:12.051Z,7.80
2018-06-03T03:47:40.396Z,10.13
2018-06-03T03:50:08.713Z,13.20
2018-06-03T03:52:37.036Z,8.10
2018-06-03T03:55:05.319Z,9.07
2018-06-03T03:57:33.640Z,10.73
2018-06-03T04:00:01.938Z,8.93
2018-06-03T04:02:30.230Z,6.87
2018-06-03T04:04:58.536Z,9.00
2018-06-03T04:07:26.811Z,7.00
2018-06-03T04:09:55.143Z,6.80
2018-06-03T04:12:23.442Z,9.23
2018-06-03T04:14:51.932Z,6.80
2018-06-03T04:17:20.208Z,9.00
2018-06-03T04:19:49.407Z,7.13
2018-06-03T04:22:18.027Z,7.80
2018-06-03T04:24:46.601Z,6.50
2018-06-03T04:27:14.895Z,6.00
2018-06-03T04:29:43.186Z,7.30
2018-06-03T04:32:11.471Z,7.57
2018-06-03T04:34:39.514Z,10.00
2018-06-03T04:37:07.818Z,7.00
2018-06-03T04:39:36.141Z,7.57
2018-06-03T04:42:04.433Z,7.27
2018-06-03T04:44:32.708Z,4.90
2018-06-03T04:47:01.008Z,8.53
2018-06-03T04:49:29.284Z,4.53
2018-06-03T04:51:57.837Z,5.40
2018-06-03T04:54:26.137Z,5.33
2018-06-03T04:56:54.596Z,6.17
2018-06-03T04:59:22.907Z,5.37
2018-06-03T05:01:51.173Z,8.10
2018-06-03T05:04:19.568Z,6.53
2018-06-03T05:06:47.853Z,6.90
2018-06-03T05:09:16.172Z,4.83
2018-06-03T05:11:44.507Z,4.83
2018-06-03T05:14:12.811Z,4.77
2018-06-03T05:16:41.196Z,7.23
2018-06-03T05:19:09.528Z,7.70
2018-06-03T05:21:37.861Z,5.23
2018-06-03T05:24:06.204Z,5.83
2018-06-03T05:26:34.503Z,7.83
2018-06-03T05:29:02.926Z,6.87
2018-06-03T05:31:31.276Z,9.83
2018-06-03T05:33:59.560Z,5.30
2018-06-03T05:36:27.903Z,4.30
2018-06-03T05:38:55.909Z,6.13
2018-06-03T05:41:24.431Z,3.97
2018-06-03T05:43:52.731Z,4.07
2018-06-03T05:46:21.024Z,8.40
2018-06-03T05:48:49.364Z,4.43
2018-06-03T05:51:17.657Z,4.77
2018-06-03T05:53:46.006Z,3.53
2018-06-03T05:56:14.890Z,4.70
2018-06-03T05:58:44.704Z,3.83
2018-06-03T06:01:25.158Z,4.60
2018-06-03T06:03:56.094Z,4.30
2018-06-03T06:06:28.043Z,4.40
2018-06-03T06:08:58.319Z,4.23
2018-06-03T06:11:28.854Z,4.53
2018-06-03T06:13:57.448Z,6.07
2018-06-03T06:16:25.792Z,7.20
2018-06-03T06:18:54.575Z,4.70
2018-06-03T06:21:22.930Z,6.70
2018-06-03T06:23:51.378Z,5.70
2018-06-03T06:26:20.777Z,5.53
2018-06-03T06:28:49.312Z,6.10
2018-06-03T06:31:19.084Z,4.50
2018-06-03T06:33:47.417Z,6.73
2018-06-03T06:36:15.829Z,5.60
2018-06-03T06:38:44.678Z,6.87
2018-06-03T06:41:13.191Z,6.60
2018-06-03T06:43:41.524Z,5.17
2018-06-03T06:46:10.063Z,5.80
2018-06-03T06:48:38.422Z,6.00
2018-06-03T06:51:07.295Z,6.27
2018-06-03T06:53:35.826Z,7.80
2018-06-03T06:56:04.160Z,6.27
2018-06-03T06:58:32.692Z,6.07
2018-06-03T07:01:01.189Z,5.30
2018-06-03T07:03:29.536Z,8.23
2018-06-03T07:05:57.873Z,5.10
2018-06-03T07:08:26.386Z,5.50
2018-06-03T07:10:55.425Z,8.00
2018-06-03T07:13:23.784Z,6.63
2018-06-03T07:15:53.569Z,11.80
2018-06-03T07:18:28.555Z,4.80
2018-06-03T07:21:00.994Z,6.13
2018-06-03T07:23:32.737Z,7.10
2018-06-03T07:26:00.926Z,6.43
2018-06-03T07:28:29.808Z,5.00
2018-06-03T07:30:58.129Z,5.83
2018-06-03T07:33:26.453Z,7.47
2018-06-03T07:35:54.483Z,6.43
2018-06-03T07:38:23.791Z,5.97
2018-06-03T07:40:53.158Z,6.90
2018-06-03T07:43:21.563Z,10.33
2018-06-03T07:45:50.563Z,5.80
2018-06-03T07:48:18.891Z,6.03
2018-06-03T07:50:47.280Z,6.10
2018-06-03T07:53:15.603Z,9.53
2018-06-03T07:55:43.913Z,4.97
2018-06-03T07:58:12.810Z,6.23
2018-06-03T08:00:41.127Z,6.00
2018-06-03T08:03:09.485Z,4.77
2018-06-03T08:05:37.817Z,4.67
2018-06-03T08:08:06.195Z,5.20
2018-06-03T08:10:34.520Z,6.40
2018-06-03T08:13:03.453Z,4.97
2018-06-03T08:15:31.750Z,6.00
2018-06-03T08:18:00.340Z,5.10
2018-06-03T08:20:28.656Z,4.57
2018-06-03T08:22:56.964Z,6.47
2018-06-03T08:25:25.321Z,7.33
2018-06-03T08:27:53.403Z,5.20
2018-06-03T08:30:21.745Z,4.73
2018-06-03T08:32:50.094Z,4.97
2018-06-03T08:35:18.467Z,4.00
2018-06-03T08:37:46.907Z,4.27
2018-06-03T08:40:15.242Z,3.90
2018-06-03T08:42:43.582Z,5.30
2018-06-03T08:45:11.986Z,3.97
2018-06-03T08:47:40.350Z,3.20
2018-06-03T08:50:08.689Z,3.50
2018-06-03T08:52:36.984Z,3.80
2018-06-03T08:55:05.248Z,3.53
2018-06-03T08:57:33.619Z,3.00
2018-06-03T09:00:02.069Z,4.00
2018-06-03T09:02:30.441Z,4.47
2018-06-03T09:04:58.830Z,3.40
2018-06-03T09:07:28.048Z,3.30
2018-06-03T09:09:56.387Z,6.97
2018-06-03T09:12:24.485Z,3.53
2018-06-03T09:14:52.802Z,3.10
2018-06-03T09:17:21.209Z,6.00
2018-06-03T09:19:50.123Z,3.33
2018-06-03T09:22:18.485Z,4.00
2018-06-03T09:24:46.841Z,5.83
2018-06-03T09:27:15.721Z,3.37
2018-06-03T09:29:44.293Z,3.07
2018-06-03T09:32:12.611Z,6.03
2018-06-03T09:34:41.262Z,3.77
2018-06-03T09:37:09.717Z,4.20
2018-06-03T09:39:38.073Z,3.53
2018-06-03T09:42:06.519Z,3.50
2018-06-03T09:44:34.851Z,3.00
2018-06-03T09:47:03.156Z,3.47
2018-06-03T09:49:31.477Z,3.40
2018-06-03T09:51:59.788Z,3.63
2018-06-03T09:54:28.125Z,3.73
2018-06-03T09:56:56.475Z,3.57
2018-06-03T09:59:24.792Z,3.07
2018-06-03T10:01:53.113Z,3.50
2018-06-03T10:04:21.481Z,3.60
2018-06-03T10:06:51.406Z,4.00
2018-06-03T10:09:20.823Z,3.40
2018-06-03T10:11:49.206Z,3.40
2018-06-03T10:14:17.554Z,3.20
2018-06-03T10:16:46.632Z,3.33
2018-06-03T10:19:14.999Z,3.20
2018-06-03T10:21:43.355Z,4.50
2018-06-03T10:24:11.699Z,4.00
2018-06-03T10:26:40.048Z,3.10
2018-06-03T10:29:08.338Z,7.53
2018-06-03T10:31:36.887Z,4.27
2018-06-03T10:34:05.218Z,3.60
2018-06-03T10:36:34.204Z,3.60
2018-06-03T10:39:08.580Z,3.00
2018-06-03T10:41:37.762Z,3.97
2018-06-03T10:44:12.601Z,4.13
2018-06-03T10:46:43.401Z,3.63
2018-06-03T10:49:19.163Z,3.90
2018-06-03T10:51:47.500Z,3.73
2018-06-03T10:54:15.845Z,4.07
2018-06-03T10:56:44.177Z,3.47
2018-06-03T10:59:12.523Z,3.50
2018-06-03T11:01:40.929Z,3.33
2018-06-03T11:04:09.271Z,4.33
2018-06-03T11:06:37.694Z,3.27
2018-06-03T11:09:06.834Z,3.60
2018-06-03T11:11:35.207Z,4.77
2018-06-03T11:14:03.581Z,3.70
2018-06-03T11:16:31.930Z,3.27
2018-06-03T11:19:00.295Z,6.10
2018-06-03T11:21:28.626Z,4.37
2018-06-03T11:23:56.956Z,3.50
2018-06-03T11:26:25.307Z,4.67
2018-06-03T11:28:54.159Z,3.40
2018-06-03T11:31:22.489Z,3.57
2018-06-03T11:33:50.873Z,3.80
2018-06-03T11:36:19.193Z,3.47
2018-06-03T11:38:47.543Z,4.10
2018-06-03T11:41:16.227Z,3.70
2018-06-03T11:43:44.538Z,4.80
2018-06-03T11:46:12.883Z,3.60
2018-06-03T11:48:41.225Z,3.50
2018-06-03T11:51:09.552Z,3.40
2018-06-03T11:53:37.889Z,3.50
2018-06-03T11:56:05.953Z,3.50
2018-06-03T11:58:45.597Z,3.77
2018-06-03T12:01:13.913Z,3.00
2018-06-03T12:03:42.382Z,3.17
2018-06-03T12:06:10.918Z,3.27
2018-06-03T12:08:42.948Z,3.63
2018-06-03T12:11:11.394Z,4.77
2018-06-03T12:13:39.858Z,3.53
2018-06-03T12:16:08.381Z,4.20
2018-06-03T12:18:36.775Z,3.27
2018-06-03T12:21:05.935Z,4.20
2018-06-03T12:23:34.251Z,3.50
2018-06-03T12:26:02.556Z,3.70
2018-06-03T12:28:31.088Z,3.23
2018-06-03T12:30:59.383Z,4.20
2018-06-03T12:33:27.779Z,3.23
2018-06-03T12:35:59.323Z,3.93
2018-06-03T12:38:27.655Z,4.10
2018-06-03T12:41:04.449Z,3.70
2018-06-03T12:43:33.020Z,4.30
2018-06-03T12:46:01.449Z,4.63
2018-06-03T12:48:29.888Z,3.90
2018-06-03T12:50:58.376Z,3.63
2018-06-03T12:53:26.902Z,4.17
2018-06-03T12:55:55.317Z,3.60
2018-06-03T12:58:23.334Z,3.50
2018-06-03T13:00:51.828Z,3.70
2018-06-03T13:03:23.604Z,4.10
2018-06-03T13:05:54.073Z,3.07
2018-06-03T13:08:22.147Z,3.97
2018-06-03T13:10:50.711Z,4.10
2018-06-03T13:13:19.639Z,3.73
2018-06-03T13:15:48.064Z,4.33
2018-06-03T13:18:16.571Z,3.80
2018-06-03T13:20:45.338Z,5.10
2018-06-03T13:23:13.944Z,3.63
2018-06-03T13:25:42.463Z,3.33
2018-06-03T13:28:10.776Z,4.50
2018-06-03T13:30:39.128Z,3.73
2018-06-03T13:33:07.482Z,3.20
2018-06-03T13:35:35.837Z,3.43
2018-06-03T13:38:04.155Z,3.40
2018-06-03T13:40:32.889Z,3.83
2018-06-03T13:43:01.291Z,5.00
2018-06-03T13:45:30.589Z,3.67
2018-06-03T13:48:00.779Z,3.27
2018-06-03T13:50:29.208Z,3.53
2018-06-03T13:52:57.638Z,3.20
2018-06-03T13:55:25.957Z,3.33
2018-06-03T13:57:55.173Z,3.30
2018-06-03T14:00:23.620Z,4.07
2018-06-03T14:02:52.944Z,3.70
2018-06-03T14:05:21.437Z,3.10
2018-06-03T14:07:49.816Z,3.30
2018-06-03T14:10:18.154Z,2.97
2018-06-03T14:12:46.792Z,3.20
2018-06-03T14:15:15.692Z,2.77
2018-06-03T14:17:44.297Z,2.67
2018-06-03T14:20:13.110Z,3.30
2018-06-03T14:22:41.850Z,3.90
2018-06-03T14:25:10.614Z,3.50
2018-06-03T14:27:39.262Z,3.47
2018-06-03T14:30:07.969Z,3.27
2018-06-03T14:32:36.548Z,5.40
2018-06-03T14:35:05.279Z,3.87
2018-06-03T14:37:33.642Z,3.30
2018-06-03T14:40:02.272Z,5.13
2018-06-03T14:42:30.381Z,3.50
2018-06-03T14:44:58.918Z,3.40
2018-06-03T14:47:27.862Z,3.63
2018-06-03T14:49:56.254Z,3.40
2018-06-03T14:52:24.602Z,3.30
2018-06-03T14:54:52.978Z,3.17
2018-06-03T14:57:21.355Z,3.73
2018-06-03T14:59:49.666Z,3.67
2018-06-03T15:02:17.705Z,3.37
2018-06-03T15:04:46.059Z,3.60
2018-06-03T15:07:14.445Z,4.33
2018-06-03T15:09:42.722Z,4.13
2018-06-03T15:12:11.119Z,4.03
2018-06-03T15:14:39.534Z,3.80
2018-06-03T15:17:07.877Z,3.30
2018-06-03T15:19:36.201Z,3.50
2018-06-03T15:22:04.610Z,3.80
2018-06-03T15:24:32.931Z,3.57
2018-06-03T15:27:01.368Z,3.20
2018-06-03T15:29:29.755Z,3.50
2018-06-03T15:31:58.099Z,3.10
2018-06-03T15:34:26.983Z,3.63
2018-06-03T15:36:55.916Z,3.43
2018-06-03T15:39:24.399Z,4.43
2018-06-03T15:41:53.669Z,3.53
2018-06-03T15:44:22.253Z,3.40
2018-06-03T15:46:50.798Z,3.40
2018-06-03T15:49:19.436Z,4.50
2018-06-03T15:51:48.191Z,3.83
2018-06-03T15:54:19.685Z,3.63
2018-06-03T15:56:48.869Z,3.33
2018-06-03T15:59:18.021Z,5.07
2018-06-03T16:01:46.363Z,3.47
2018-06-03T16:04:15.266Z,3.70
2018-06-03T16:06:43.697Z,3.43
2018-06-03T16:09:12.098Z,3.20
2018-06-03T16:11:40.440Z,3.73
2018-06-03T16:14:08.818Z,3.33
2018-06-03T16:16:37.174Z,3.53
2018-06-03T16:19:05.654Z,3.90
2018-06-03T16:21:34.686Z,3.67
2018-06-03T16:24:03.551Z,4.27
2018-06-03T16:26:32.142Z,4.70
2018-06-03T16:29:00.505Z,3.83
2018-06-03T16:31:30.713Z,4.00
2018-06-03T16:33:59.072Z,4.03
2018-06-03T16:36:27.467Z,3.37
2018-06-03T16:38:55.847Z,3.50
2018-06-03T16:41:24.211Z,3.63
2018-06-03T16:43:52.579Z,5.60
2018-06-03T16:46:24.755Z,3.50
2018-06-03T16:48:53.072Z,3.13
2018-06-03T16:51:22.132Z,4.90
2018-06-03T16:53:50.465Z,3.63
2018-06-03T16:56:18.806Z,3.70
2018-06-03T16:58:47.323Z,4.37
2018-06-03T17:01:15.685Z,3.23
2018-06-03T17:03:44.007Z,3.73
2018-06-03T17:06:13.031Z,4.60
2018-06-03T17:08:43.049Z,4.40
2018-06-03T17:11:16.754Z,4.53
2018-06-03T17:13:45.485Z,5.00
2018-06-03T17:16:14.677Z,4.90
2018-06-03T17:18:43.342Z,4.63
2018-06-03T17:21:11.689Z,4.50
2018-06-03T17:23:40.608Z,5.03
2018-06-03T17:26:09.011Z,5.40
2018-06-03T17:28:37.431Z,4.30
2018-06-03T17:31:05.783Z,5.40
2018-06-03T17:33:34.723Z,4.70
2018-06-03T17:36:03.912Z,5.33
2018-06-03T17:38:32.336Z,5.50
2018-06-03T17:41:00.732Z,4.47
2018-06-03T17:43:30.419Z,4.70
2018-06-03T17:45:59.428Z,4.60
2018-06-03T17:48:30.077Z,4.80
2018-06-03T17:50:58.477Z,5.30
2018-06-03T17:53:26.839Z,4.60
2018-06-03T17:55:55.201Z,4.80
2018-06-03T17:58:24.274Z,4.80
2018-06-03T18:00:52.879Z,4.83
2018-06-03T18:03:21.718Z,4.97
2018-06-03T18:05:50.085Z,4.97
2018-06-03T18:08:18.467Z,4.43
2018-06-03T18:10:46.847Z,4.83
2018-06-03T18:13:15.899Z,5.40
2018-06-03T18:15:44.547Z,5.10
2018-06-03T18:18:12.892Z,5.00
2018-06-03T18:20:41.193Z,5.10
2018-06-03T18:23:10.528Z,5.33
2018-06-03T18:25:38.922Z,5.57
2018-06-03T18:28:07.308Z,4.77
2018-06-03T18:30:35.727Z,9.60
2018-06-03T18:33:04.096Z,6.13
2018-06-03T18:35:32.436Z,5.70
2018-06-03T18:38:00.800Z,5.67
2018-06-03T18:40:29.217Z,5.90
2018-06-03T18:42:57.893Z,5.30
2018-06-03T18:45:27.105Z,6.60
2018-06-03T18:47:55.789Z,5.40
2018-06-03T18:50:24.165Z,5.33
2018-06-03T18:52:52.519Z,6.47
2018-06-03T18:55:20.882Z,7.03
2018-06-03T18:57:49.265Z,7.50
2018-06-03T19:00:17.676Z,7.27
2018-06-03T19:02:46.019Z,8.27
2018-06-03T19:05:14.386Z,7.40
2018-06-03T19:07:42.782Z,6.00
2018-06-03T19:10:11.120Z,6.67
2018-06-03T19:12:39.475Z,6.57
2018-06-03T19:15:07.900Z,6.60
2018-06-03T19:17:36.447Z,7.07
2018-06-03T19:20:05.636Z,7.07
2018-06-03T19:22:33.977Z,5.93
2018-06-03T19:25:02.469Z,6.47
2018-06-03T19:27:30.946Z,6.47
2018-06-03T19:29:59.910Z,7.07
2018-06-03T19:32:28.290Z,7.50
2018-06-03T19:34:57.615Z,6.90
2018-06-03T19:37:26.821Z,7.47
2018-06-03T19:39:55.260Z,7.80
2018-06-03T19:42:23.819Z,8.50
2018-06-03T19:44:54.108Z,9.17
2018-06-03T19:47:22.967Z,11.93
2018-06-03T19:49:51.678Z,8.70
2018-06-03T19:52:20.843Z,7.67
2018-06-03T19:54:50.392Z,9.00
2018-06-03T19:57:18.987Z,7.93
2018-06-03T19:59:47.474Z,7.17
2018-06-03T20:02:15.958Z,6.80
2018-06-03T20:04:48.792Z,8.90
2018-06-03T20:07:17.921Z,7.93
2018-06-03T20:09:46.540Z,7.70
2018-06-03T20:12:21.025Z,9.27
2018-06-03T20:14:49.517Z,8.17
2018-06-03T20:17:17.913Z,9.40
2018-06-03T20:19:46.570Z,9.20
2018-06-03T20:22:15.091Z,8.53
2018-06-03T20:24:43.458Z,8.70
2018-06-03T20:27:11.864Z,9.10
2018-06-03T20:29:40.277Z,11.80
2018-06-03T20:32:08.832Z,9.03
2018-06-03T20:34:37.286Z,11.50
2018-06-03T20:37:05.653Z,14.00
2018-06-03T20:39:34.330Z,10.77
2018-06-03T20:42:03.043Z,9.67
2018-06-03T20:44:31.468Z,12.13
2018-06-03T20:46:59.922Z,12.70
2018-06-03T20:49:28.419Z,10.57
2018-06-03T20:51:57.608Z,11.43
2018-06-03T20:54:29.457Z,10.13
2018-06-03T20:56:58.517Z,12.40
2018-06-03T20:59:27.190Z,13.80
2018-06-03T21:01:56.200Z,9.83
2018-06-03T21:04:24.985Z,9.73
2018-06-03T21:06:55.296Z,12.47
2018-06-03T21:09:25.759Z,11.10
2018-06-03T21:11:57.986Z,10.43
2018-06-03T21:14:29.818Z,10.43
2018-06-03T21:16:59.331Z,7.97
2018-06-03T21:19:29.288Z,11.03
2018-06-03T21:21:58.571Z,10.90
2018-06-03T21:24:28.026Z,11.90
2018-06-03T21:27:06.278Z,12.63
2018-06-03T21:29:38.680Z,10.80
2018-06-03T21:32:07.095Z,15.20
2018-06-03T21:34:36.342Z,11.93
2018-06-03T21:37:06.372Z,12.50
2018-06-03T21:39:40.542Z,12.57
2018-06-03T21:42:11.814Z,11.40
2018-06-03T21:44:41.704Z,13.87
2018-06-03T21:47:10.164Z,12.83
2018-06-03T21:49:38.944Z,11.73
2018-06-03T21:52:21.679Z,14.13
2018-06-03T21:54:54.581Z,16.37
2018-06-03T21:57:24.474Z,12.23
2018-06-03T21:59:54.447Z,11.77
2018-06-03T22:02:24.911Z,10.83
2018-06-03T22:04:54.324Z,12.13
2018-06-03T22:07:30.061Z,13.40
2018-06-03T22:10:06.092Z,14.30
2018-06-03T22:12:34.481Z,14.43
2018-06-03T22:15:04.010Z,19.17
2018-06-03T22:17:32.832Z,14.30
2018-06-03T22:20:01.996Z,18.10
2018-06-03T22:22:30.484Z,13.80
2018-06-03T22:24:59.411Z,16.10
2018-06-03T22:27:40.963Z,13.83
2018-06-03T22:30:10.414Z,14.33
2018-06-03T22:32:39.467Z,13.70
2018-06-03T22:35:10.809Z,14.93
2018-06-03T22:37:39.330Z,15.30
2018-06-03T22:40:07.901Z,13.63
2018-06-03T22:42:37.685Z,15.40
2018-06-03T22:45:07.319Z,21.00
2018-06-03T22:47:35.764Z,17.90
2018-06-03T22:50:04.417Z,20.30
2018-06-03T22:52:32.773Z,17.60
2018-06-03T22:55:01.253Z,20.80
2018-06-03T22:57:41.482Z,17.40
2018-06-03T23:00:11.510Z,18.10
2018-06-03T23:02:47.173Z,18.10
2018-06-03T23:05:16.513Z,15.43
2018-06-03T23:07:45.316Z,17.33
2018-06-03T23:10:13.404Z,17.13
2018-06-03T23:12:43.038Z,22.53
2018-06-03T23:15:13.373Z,17.53
2018-06-03T23:17:41.852Z,19.60
2018-06-03T23:20:10.220Z,20.47
2018-06-03T23:22:38.785Z,16.90
2018-06-03T23:25:12.506Z,18.17
2018-06-03T23:27:40.915Z,16.60
2018-06-03T23:30:09.276Z,15.90
2018-06-03T23:32:37.694Z,16.33
2018-06-03T23:35:06.025Z,17.17
2018-06-03T23:37:34.405Z,18.17
2018-06-03T23:40:02.794Z,18.87
2018-06-03T23:42:33.763Z,17.47
2018-06-03T23:45:02.641Z,19.33
2018-06-03T23:47:31.723Z,16.00
2018-06-03T23:50:00.205Z,17.20
2018-06-03T23:52:29.285Z,20.90
2018-06-03T23:54:58.738Z,21.87
2018-06-03T23:57:27.130Z,15.90
2018-06-03T23:59:57.148Z,19.97
